Time;durP1;ratioP1;P1;durP2;ratioP2;P2;SDS_P1;SDS_P2;PMS_P1;PMS_P2;Temp;Humidity;BMP_temperature;BMP_pressure;BME280_temperature;BME280_humidity;BME280_pressure;Samples;Min_cycle;Max_cycle;Signal;HPM_P1;HPM_P2
2022/02/03 00:16:40;;;;;;;;;;;9.50;1.00;;;;;;5042402;28;20347;-83
2022/02/03 00:24:40;;;;;;;;;;;9.50;1.00;;;;;;5063325;28;19959;-82
2022/02/03 00:27:20;;;;;;;;;;;9.50;1.00;;;;;;5092985;28;19944;-82
2022/02/03 00:35:40;;;;;;;;;;;9.40;1.00;;;;;;5058131;28;19920;-82
2022/02/03 00:48:41;;;;;;;;;;;9.40;1.00;;;;;;5057487;28;20007;-82
2022/02/03 00:51:06;;;;;;;;;;;9.40;1.00;;;;;;5061698;28;19920;-82
2022/02/03 00:53:33;;;;;;;;;;;9.40;1.00;;;;;;5095284;28;20303;-82
2022/02/03 00:56:01;;;;;;;;;;;9.40;1.00;;;;;;5063594;28;19917;-82
2022/02/03 00:58:27;;;;;;;;;;;9.40;1.00;;;;;;5065868;28;19935;-82
2022/02/03 01:00:57;;;;;;;;;;;9.40;1.00;;;;;;5062398;28;19920;-82
2022/02/03 01:03:26;;;;;;;;;;;9.30;1.00;;;;;;5055531;28;19913;-82
2022/02/03 01:05:54;;;;;;;;;;;9.30;1.00;;;;;;5060441;28;19975;-82
2022/02/03 01:08:24;;;;;;;;;;;9.30;1.00;;;;;;5083021;28;19931;-82
2022/02/03 01:10:54;;;;;;;;;;;9.30;1.00;;;;;;5062936;28;20003;-82
2022/02/03 01:13:37;;;;;;;;;;;9.30;1.00;;;;;;5054379;28;20015;-82
2022/02/03 01:16:33;;;;;;;;;;;9.30;1.00;;;;;;5069204;28;19917;-82
2022/02/03 01:19:20;;;;;;;;;;;9.30;1.00;;;;;;5062875;28;20281;-82
2022/02/03 01:44:02;;;;;;;;;;;9.20;1.00;;;;;;5057301;28;19972;-82
2022/02/03 01:46:48;;;;;;;;;;;9.20;1.00;;;;;;5060137;28;19916;-82
2022/02/03 01:49:16;;;;;;;;;;;9.20;1.00;;;;;;5068418;28;20392;-82
2022/02/03 01:51:55;;;;;;;;;;;9.30;1.00;;;;;;5062077;28;19913;-82
2022/02/03 01:54:30;;;;;;;;;;;9.20;1.00;;;;;;5085678;28;20039;-82
2022/02/03 01:57:07;;;;;;;;;;;9.20;1.00;;;;;;5069325;28;19969;-83
2022/02/03 01:59:34;;;;;;;;;;;9.20;1.00;;;;;;5057713;28;19936;-81
2022/02/03 02:02:00;;;;;;;;;;;9.20;1.00;;;;;;5058257;28;19916;-82
2022/02/03 02:04:44;;;;;;;;;;;9.30;1.00;;;;;;5059856;28;19913;-82
2022/02/03 02:07:29;;;;;;;;;;;9.20;1.00;;;;;;5059950;28;20357;-82
2022/02/03 02:12:46;;;;;;;;;;;9.20;1.00;;;;;;5070322;28;19947;-81
2022/02/03 02:18:13;;;;;;;;;;;9.30;1.00;;;;;;5071524;28;19920;-81
2022/02/03 02:40:04;;;;;;;;;;;9.20;1.00;;;;;;5062979;28;19935;-80
2022/02/03 02:42:37;;;;;;;;;;;9.20;1.00;;;;;;5064166;28;20411;-81
2022/02/03 02:45:07;;;;;;;;;;;9.20;1.00;;;;;;5057949;28;19980;-80
2022/02/03 02:47:35;;;;;;;;;;;9.20;1.00;;;;;;5060877;28;19917;-81
2022/02/03 02:50:11;;;;;;;;;;;9.20;1.00;;;;;;5090339;28;19920;-80
2022/02/03 02:52:44;;;;;;;;;;;9.20;1.00;;;;;;5060099;28;19909;-81
2022/02/03 03:30:33;;;;;;;;;;;8.80;1.00;;;;;;5064896;28;19920;-82
2022/02/03 03:33:21;;;;;;;;;;;8.90;1.00;;;;;;5064994;28;19912;-81
2022/02/03 03:38:17;;;;;;;;;;;8.80;1.00;;;;;;5066687;28;20308;-81
2022/02/03 03:40:46;;;;;;;;;;;8.80;1.00;;;;;;5057218;28;19959;-81
2022/02/03 03:43:17;;;;;;;;;;;8.80;1.00;;;;;;5051571;28;19912;-81
2022/02/03 03:45:45;;;;;;;;;;;8.80;1.00;;;;;;5065637;28;19919;-81
2022/02/03 03:48:14;;;;;;;;;;;8.80;1.00;;;;;;5064770;28;19920;-82
2022/02/03 03:50:40;;;;;;;;;;;8.90;1.00;;;;;;5061147;28;19917;-82
2022/02/03 03:53:16;;;;;;;;;;;8.90;1.00;;;;;;5058757;28;20044;-82
2022/02/03 03:55:50;;;;;;;;;;;8.90;1.00;;;;;;5093557;28;19919;-81
2022/02/03 04:31:33;;;;;;;;;;;8.80;1.00;;;;;;5061711;28;19976;-81
2022/02/03 04:36:34;;;;;;;;;;;8.80;1.00;;;;;;5073035;28;19913;-81
2022/02/03 04:53:21;;;;;;;;;;;8.70;1.00;;;;;;5054943;28;19936;-81
2022/02/03 04:59:00;;;;;;;;;;;8.70;1.00;;;;;;5061408;28;19959;-80
2022/02/03 05:07:17;;;;;;;;;;;8.70;1.00;;;;;;5067964;28;19985;-81
2022/02/03 05:09:43;;;;;;;;;;;8.60;1.00;;;;;;5057718;28;19917;-81
2022/02/03 05:18:04;;;;;;;;;;;8.60;1.00;;;;;;5066902;28;19913;-81
2022/02/03 05:20:46;;;;;;;;;;;8.60;1.00;;;;;;5071198;28;19916;-81
2022/02/03 05:24:00;;;;;;;;;;;8.60;1.00;;;;;;5062948;28;19920;-81
2022/02/03 05:32:39;;;;;;;;;;;8.60;1.00;;;;;;5059903;28;19919;-81
2022/02/03 06:05:20;;;;;;;;;;;8.50;1.00;;;;;;5066806;28;19917;-81
2022/02/03 06:08:00;;;;;;;;;;;8.50;1.00;;;;;;5066562;28;19980;-81
2022/02/03 06:13:15;;;;;;;;;;;8.50;1.00;;;;;;5065428;28;19916;-81
2022/02/03 06:16:04;;;;;;;;;;;8.50;1.00;;;;;;5099606;28;19916;-82
2022/02/03 06:29:08;;;;;;;;;;;8.50;1.00;;;;;;5063838;28;19912;-81
2022/02/03 06:31:37;;;;;;;;;;;8.50;1.00;;;;;;5100243;28;19909;-81
2022/02/03 06:34:04;;;;;;;;;;;8.40;1.00;;;;;;5064541;28;19931;-81
2022/02/03 06:36:30;;;;;;;;;;;8.40;1.00;;;;;;5084840;28;20262;-81
2022/02/03 06:38:55;;;;;;;;;;;8.40;1.00;;;;;;5078609;28;19947;-80
2022/02/03 06:41:20;;;;;;;;;;;8.40;1.00;;;;;;5067641;28;20395;-81
2022/02/03 06:43:46;;;;;;;;;;;8.40;1.00;;;;;;5065787;28;19920;-81
2022/02/03 06:46:13;;;;;;;;;;;8.40;1.00;;;;;;5062438;28;21414;-81
2022/02/03 06:48:40;;;;;;;;;;;8.50;1.00;;;;;;5059351;28;19967;-81
2022/02/03 06:51:16;;;;;;;;;;;8.60;1.00;;;;;;5056077;28;19920;-81
2022/02/03 06:53:44;;;;;;;;;;;8.70;1.00;;;;;;5055298;28;19912;-80
2022/02/03 06:56:25;;;;;;;;;;;8.70;1.00;;;;;;5059286;28;19913;-81
2022/02/03 06:58:55;;;;;;;;;;;8.70;1.00;;;;;;5063652;28;19912;-81
2022/02/03 07:01:29;;;;;;;;;;;8.80;1.00;;;;;;5056615;28;19913;-82
2022/02/03 07:04:01;;;;;;;;;;;8.70;1.00;;;;;;5064693;28;19912;-81
2022/02/03 07:06:31;;;;;;;;;;;8.80;1.00;;;;;;5061828;28;19917;-81
2022/02/03 07:09:00;;;;;;;;;;;8.80;1.00;;;;;;5084562;28;19923;-81
2022/02/03 07:11:25;;;;;;;;;;;8.80;1.00;;;;;;5062636;28;19927;-82
2022/02/03 07:13:50;;;;;;;;;;;8.80;1.00;;;;;;5059074;28;19995;-81
2022/02/03 07:16:16;;;;;;;;;;;8.80;1.00;;;;;;5050876;28;19960;-81
2022/02/03 07:18:41;;;;;;;;;;;8.80;1.00;;;;;;5057695;28;20219;-82
2022/02/03 07:21:07;;;;;;;;;;;8.80;1.00;;;;;;5057210;28;19912;-81
2022/02/03 07:23:34;;;;;;;;;;;8.80;1.00;;;;;;5065176;28;19912;-80
2022/02/03 07:25:59;;;;;;;;;;;8.80;1.00;;;;;;5059129;28;19916;-80
2022/02/03 07:28:25;;;;;;;;;;;8.80;1.00;;;;;;5063960;28;19920;-81
2022/02/03 07:30:51;;;;;;;;;;;8.80;1.00;;;;;;5083911;28;19913;-81
2022/02/03 07:33:16;;;;;;;;;;;8.80;1.00;;;;;;5056270;28;19917;-81
2022/02/03 07:35:42;;;;;;;;;;;8.80;1.00;;;;;;5065522;28;19923;-81
2022/02/03 07:38:08;;;;;;;;;;;8.80;1.00;;;;;;5062367;28;19940;-81
2022/02/03 07:40:35;;;;;;;;;;;8.80;1.00;;;;;;5091238;28;19913;-81
2022/02/03 07:43:03;;;;;;;;;;;8.80;1.00;;;;;;5065788;28;19912;-81
2022/02/03 07:45:30;;;;;;;;;;;8.70;1.00;;;;;;5064577;28;19953;-81
2022/02/03 07:47:56;;;;;;;;;;;8.70;1.00;;;;;;5075940;28;20028;-79
2022/02/03 07:50:22;;;;;;;;;;;8.70;1.00;;;;;;5080108;28;19935;-80
2022/02/03 07:52:47;;;;;;;;;;;8.70;1.00;;;;;;5064681;28;19913;-81
2022/02/03 07:55:13;;;;;;;;;;;8.70;1.00;;;;;;5064374;28;19909;-81
2022/02/03 07:57:43;;;;;;;;;;;8.70;1.00;;;;;;5070739;28;19917;-81
2022/02/03 08:00:08;;;;;;;;;;;8.70;1.00;;;;;;5074333;28;19999;-81
2022/02/03 08:02:36;;;;;;;;;;;8.70;1.00;;;;;;5064646;28;19908;-81
2022/02/03 08:05:04;;;;;;;;;;;8.70;1.00;;;;;;5065547;28;19917;-81
2022/02/03 08:07:30;;;;;;;;;;;8.70;1.00;;;;;;5057839;28;19916;-81
2022/02/03 08:10:03;;;;;;;;;;;8.80;1.00;;;;;;5064915;28;19917;-82
2022/02/03 08:12:33;;;;;;;;;;;8.80;1.00;;;;;;5063751;28;19985;-81
2022/02/03 08:14:59;;;;;;;;;;;8.80;1.00;;;;;;5088433;28;19913;-82
2022/02/03 08:17:35;;;;;;;;;;;8.80;1.00;;;;;;5097490;28;19908;-82
2022/02/03 08:20:05;;;;;;;;;;;8.80;1.00;;;;;;5092136;28;19913;-81
2022/02/03 08:22:43;;;;;;;;;;;8.90;1.00;;;;;;5074138;28;19913;-82
2022/02/03 08:25:22;;;;;;;;;;;8.70;1.00;;;;;;5061036;28;19917;-82
2022/02/03 08:28:24;;;;;;;;;;;8.70;1.00;;;;;;5060469;28;20288;-82
2022/02/03 08:30:59;;;;;;;;;;;8.70;1.00;;;;;;5076386;28;19918;-81
2022/02/03 08:33:28;;;;;;;;;;;8.70;1.00;;;;;;5058745;28;19963;-82
2022/02/03 08:35:55;;;;;;;;;;;8.70;1.00;;;;;;5057772;28;20318;-82
2022/02/03 08:38:32;;;;;;;;;;;8.70;1.00;;;;;;5063702;28;19912;-82
2022/02/03 08:41:01;;;;;;;;;;;8.80;1.00;;;;;;5061629;28;19951;-82
2022/02/03 08:43:30;;;;;;;;;;;8.80;1.00;;;;;;5065709;28;19912;-81
2022/02/03 08:45:56;;;;;;;;;;;8.80;1.00;;;;;;5065080;28;19920;-82
2022/02/03 08:48:21;;;;;;;;;;;8.80;1.00;;;;;;5060198;28;19917;-82
2022/02/03 08:50:47;;;;;;;;;;;8.80;1.00;;;;;;5063180;28;19917;-81
2022/02/03 09:35:55;;;;;;;;;;;9.00;99.90;;;;;;5058495;28;19960;-82
2022/02/03 09:54:43;;;;;;;;;;;8.90;99.90;;;;;;5063923;28;19920;-81
2022/02/03 10:00:00;;;;;;;;;;;8.80;99.90;;;;;;5060961;28;19916;-82
2022/02/03 10:02:24;;;;;;;;;;;8.80;27.90;;;;;;5060796;28;19920;-81
2022/02/03 10:04:53;;;;;;;;;;;8.80;1.00;;;;;;5067671;28;19940;-81
2022/02/03 10:07:21;;;;;;;;;;;8.70;1.00;;;;;;5060392;28;20513;-82
2022/02/03 10:09:47;;;;;;;;;;;8.70;1.00;;;;;;5066710;28;19973;-82
2022/02/03 10:12:13;;;;;;;;;;;8.70;99.90;;;;;;5063618;28;19982;-82
2022/02/03 10:14:46;;;;;;;;;;;8.70;1.00;;;;;;5100879;28;19963;-82
2022/02/03 10:17:12;;;;;;;;;;;8.70;1.00;;;;;;5062104;28;19921;-82
2022/02/03 10:19:40;;;;;;;;;;;8.80;99.90;;;;;;5063063;28;19995;-82
2022/02/03 10:22:13;;;;;;;;;;;8.80;1.00;;;;;;5063981;28;19943;-82
2022/02/03 10:24:40;;;;;;;;;;;8.90;25.00;;;;;;5098554;28;20349;-82
2022/02/03 10:27:15;;;;;;;;;;;8.90;1.00;;;;;;5061573;28;19947;-82
2022/02/03 10:29:45;;;;;;;;;;;8.90;99.90;;;;;;5063454;28;19920;-82
2022/02/03 10:32:11;;;;;;;;;;;8.90;99.90;;;;;;5061734;28;20362;-82
2022/02/03 10:34:41;;;;;;;;;;;8.90;99.90;;;;;;5093292;28;19913;-82
2022/02/03 10:40:39;;;;;;;;;;;8.90;41.10;;;;;;5065968;28;19935;-82
2022/02/03 10:43:08;;;;;;;;;;;9.00;22.70;;;;;;5057268;28;19913;-82
2022/02/03 10:48:23;;;;;;;;;;;9.00;1.00;;;;;;5063361;28;19956;-82
2022/02/03 10:53:39;;;;;;;;;;;9.00;1.00;;;;;;5062485;28;19924;-83
2022/02/03 10:56:53;;;;;;;;;;;9.00;1.00;;;;;;5063845;28;19913;-83
2022/02/03 10:59:49;;;;;;;;;;;9.00;1.00;;;;;;5065414;28;19927;-83
2022/02/03 11:07:39;;;;;;;;;;;9.00;1.00;;;;;;5055778;28;19928;-82
2022/02/03 11:12:48;;;;;;;;;;;9.00;1.00;;;;;;5064065;28;19919;-82
2022/02/03 11:15:13;;;;;;;;;;;9.00;1.00;;;;;;5059822;28;19913;-81
2022/02/03 11:17:39;;;;;;;;;;;9.00;1.00;;;;;;5057355;28;19920;-82
2022/02/03 11:20:07;;;;;;;;;;;8.90;1.00;;;;;;5051859;28;19920;-82
2022/02/03 11:38:47;;;;;;;;;;;8.80;1.00;;;;;;5062257;28;19988;-82
2022/02/03 11:47:02;;;;;;;;;;;8.70;1.00;;;;;;5053838;28;19963;-82
2022/02/03 12:00:56;;;;;;;;;;;8.60;1.00;;;;;;5060828;28;20445;-83
2022/02/03 12:20:20;;;;;;;;;;;8.70;1.00;;;;;;5060646;28;20407;-82
2022/02/03 12:23:11;;;;;;;;;;;8.70;1.00;;;;;;5059688;28;20455;-81
2022/02/03 12:25:43;;;;;;;;;;;8.70;1.00;;;;;;5053986;28;19920;-81
2022/02/03 12:28:27;;;;;;;;;;;8.60;1.00;;;;;;5062838;28;19917;-80
2022/02/03 12:38:54;;;;;;;;;;;8.60;1.00;;;;;;5059680;28;19928;-80
2022/02/03 12:41:35;;;;;;;;;;;8.50;1.00;;;;;;5056168;28;19948;-80
2022/02/03 12:44:04;;;;;;;;;;;8.50;1.00;;;;;;5047693;28;19979;-81
2022/02/03 12:46:30;;;;;;;;;;;8.60;1.00;;;;;;5054619;28;19916;-81
2022/02/03 12:48:56;;;;;;;;;;;8.60;1.00;;;;;;5064322;28;19912;-81
2022/02/03 12:51:23;;;;;;;;;;;8.70;1.00;;;;;;5094202;28;19913;-81
2022/02/03 12:53:49;;;;;;;;;;;8.70;1.00;;;;;;5059714;28;19917;-81
2022/02/03 12:56:14;;;;;;;;;;;8.70;1.00;;;;;;5061426;28;19967;-81
2022/02/03 12:58:44;;;;;;;;;;;8.90;99.90;;;;;;5060143;28;19921;-81
2022/02/03 13:01:14;;;;;;;;;;;8.90;99.90;;;;;;5057079;28;19913;-80
2022/02/03 13:03:43;;;;;;;;;;;8.90;99.90;;;;;;5063519;28;19913;-81
2022/02/03 13:06:12;;;;;;;;;;;8.90;99.90;;;;;;5068296;28;20369;-81
2022/02/03 13:08:43;;;;;;;;;;;8.90;99.90;;;;;;5067727;28;19948;-81
2022/02/03 13:11:21;;;;;;;;;;;8.80;99.90;;;;;;5099317;28;20062;-81
2022/02/03 13:16:18;;;;;;;;;;;8.80;99.90;;;;;;5069657;28;19924;-81
2022/02/03 13:18:52;;;;;;;;;;;8.70;99.90;;;;;;5064054;28;19912;-81
2022/02/03 13:21:50;;;;;;;;;;;8.60;99.90;;;;;;5057977;28;19910;-82
2022/02/03 13:26:43;;;;;;;;;;;8.50;99.90;;;;;;5048546;28;19913;-82
2022/02/03 13:29:15;;;;;;;;;;;8.40;99.90;;;;;;5056671;28;19956;-82
2022/02/03 13:31:47;;;;;;;;;;;8.40;99.90;;;;;;5068562;28;20365;-82
2022/02/03 13:34:29;;;;;;;;;;;8.40;99.90;;;;;;5068377;28;19909;-82
2022/02/03 13:37:11;;;;;;;;;;;8.50;99.90;;;;;;5066375;28;19916;-84
2022/02/03 13:39:38;;;;;;;;;;;8.50;99.90;;;;;;5061262;28;19920;-83
2022/02/03 13:42:05;;;;;;;;;;;8.50;99.90;;;;;;5101096;28;19919;-82
2022/02/03 13:44:31;;;;;;;;;;;8.50;99.90;;;;;;5067077;28;20008;-83
2022/02/03 13:46:56;;;;;;;;;;;8.50;99.90;;;;;;5068027;28;19924;-82
2022/02/03 13:49:25;;;;;;;;;;;8.50;99.90;;;;;;5066535;28;19913;-82
2022/02/03 13:51:57;;;;;;;;;;;8.50;99.90;;;;;;5062534;28;19915;-82
2022/02/03 14:10:35;;;;;;;;;;;8.50;99.90;;;;;;5066255;28;19943;-84
2022/02/03 14:22:11;;;;;;;;;;;8.50;99.90;;;;;;5069755;28;19942;-82
2022/02/03 14:29:50;;;;;;;;;;;8.50;99.90;;;;;;5068045;28;19909;-81
2022/02/03 14:32:20;;;;;;;;;;;8.50;99.90;;;;;;5080780;28;19912;-83
2022/02/03 14:34:48;;;;;;;;;;;8.50;99.90;;;;;;5078280;28;19916;-82
2022/02/03 14:40:50;;;;;;;;;;;8.60;99.90;;;;;;5026354;28;19932;-82
2022/02/03 14:43:02;;;;;;;;;;;8.60;99.90;;;;;;5064401;28;19917;-82
2022/02/03 14:45:28;;;;;;;;;;;8.70;99.90;;;;;;5101931;28;19975;-82
2022/02/03 14:47:54;;;;;;;;;;;8.90;99.90;;;;;;5101021;28;19931;-83
2022/02/03 14:50:20;;;;;;;;;;;9.00;99.90;;;;;;5102962;28;19913;-83
2022/02/03 14:52:57;;;;;;;;;;;9.10;99.90;;;;;;5067300;28;19908;-83
2022/02/03 14:58:19;;;;;;;;;;;9.20;99.90;;;;;;5062861;28;20308;-82
2022/02/03 15:00:46;;;;;;;;;;;9.20;99.90;;;;;;5064307;28;19913;-82
2022/02/03 15:03:12;;;;;;;;;;;9.10;99.90;;;;;;5063454;28;20035;-82
2022/02/03 15:05:39;;;;;;;;;;;9.00;99.90;;;;;;5096220;28;19928;-81
2022/02/03 15:08:15;;;;;;;;;;;9.00;99.90;;;;;;5060997;28;19974;-81
2022/02/03 15:10:46;;;;;;;;;;;8.90;99.90;;;;;;5091517;28;19916;-82
2022/02/03 15:15:50;;;;;;;;;;;8.80;99.90;;;;;;5064453;28;19912;-83
2022/02/03 15:18:17;;;;;;;;;;;8.80;99.90;;;;;;5060447;28;19919;-82
2022/02/03 15:20:43;;;;;;;;;;;8.80;99.90;;;;;;5062376;28;19909;-82
2022/02/03 15:23:08;;;;;;;;;;;8.80;99.90;;;;;;5066107;28;19919;-83
2022/02/03 15:25:34;;;;;;;;;;;8.80;99.90;;;;;;5095633;28;19913;-83
2022/02/03 15:28:00;;;;;;;;;;;8.80;99.90;;;;;;5063014;28;19966;-82
2022/02/03 15:30:26;;;;;;;;;;;8.70;99.90;;;;;;5063549;28;19984;-82
2022/02/03 15:32:51;;;;;;;;;;;8.70;99.90;;;;;;5062514;28;19916;-83
2022/02/03 15:35:26;;;;;;;;;;;8.70;99.90;;;;;;5061296;28;19913;-82
2022/02/03 15:37:53;;;;;;;;;;;8.70;99.90;;;;;;5063813;28;19913;-83
2022/02/03 15:40:24;;;;;;;;;;;8.70;99.90;;;;;;5096682;28;19917;-83
2022/02/03 15:43:02;;;;;;;;;;;8.60;99.90;;;;;;5063631;28;20035;-83
2022/02/03 15:45:34;;;;;;;;;;;8.60;99.90;;;;;;5047109;28;19939;-83
2022/02/03 15:48:04;;;;;;;;;;;8.50;99.90;;;;;;5063871;28;19917;-82
2022/02/03 16:17:28;;;;;;;;;;;8.20;99.90;;;;;;5063943;28;20000;-83
2022/02/03 16:20:32;;;;;;;;;;;8.10;99.90;;;;;;5064967;28;19913;-83
2022/02/03 16:22:55;;;;;;;;;;;8.10;99.90;;;;;;5062003;28;19920;-82
2022/02/03 16:52:46;;;;;;;;;;;7.90;1.00;;;;;;5059836;28;19920;-82
2022/02/03 16:55:15;;;;;;;;;;;7.80;1.00;;;;;;5092964;28;20381;-82
2022/02/03 16:57:41;;;;;;;;;;;7.80;1.00;;;;;;5067242;28;19924;-82
2022/02/03 17:00:11;;;;;;;;;;;7.70;77.70;;;;;;5057973;28;19916;-82
2022/02/03 17:02:37;;;;;;;;;;;7.70;1.00;;;;;;5087692;28;19920;-81
2022/02/03 17:05:03;;;;;;;;;;;7.60;99.90;;;;;;5060461;28;19913;-81
2022/02/03 17:07:28;;;;;;;;;;;7.60;1.00;;;;;;5054998;28;19981;-82
2022/02/03 17:09:55;;;;;;;;;;;7.60;1.00;;;;;;5057381;28;20633;-81
2022/02/03 17:12:21;;;;;;;;;;;7.60;93.90;;;;;;5059678;28;19946;-81
2022/02/03 17:14:46;;;;;;;;;;;7.60;1.00;;;;;;5059327;28;19931;-81
2022/02/03 17:17:12;;;;;;;;;;;7.50;99.90;;;;;;5061541;28;19921;-81
2022/02/03 17:19:39;;;;;;;;;;;7.50;99.90;;;;;;5058911;28;19916;-81
2022/02/03 17:22:05;;;;;;;;;;;7.50;1.00;;;;;;5060264;28;20851;-81
2022/02/03 17:24:33;;;;;;;;;;;7.50;1.00;;;;;;5093964;28;19936;-81
2022/02/03 17:27:10;;;;;;;;;;;7.50;1.00;;;;;;5059845;28;19921;-82
2022/02/03 17:32:14;;;;;;;;;;;7.50;1.00;;;;;;5061690;28;19966;-81
2022/02/03 18:10:05;;;;;;;;;;;7.50;1.00;;;;;;5060907;28;19921;-80
2022/02/03 18:29:45;;;;;;;;;;;7.40;99.90;;;;;;5043074;28;19924;-81
2022/02/03 18:35:04;;;;;;;;;;;7.40;99.90;;;;;;5064611;28;19966;-81
2022/02/03 18:53:21;;;;;;;;;;;7.40;99.90;;;;;;5051737;28;19909;-81
2022/02/03 18:56:06;;;;;;;;;;;7.40;99.90;;;;;;5042944;28;20446;-81
2022/02/03 20:02:57;;;;;;;;;;;7.30;1.00;;;;;;5057538;28;19950;-81
2022/02/03 20:07:51;;;;;;;;;;;7.30;1.00;;;;;;5062028;28;19939;-80
2022/02/03 20:10:30;;;;;;;;;;;7.30;1.00;;;;;;5055496;28;19928;-80
2022/02/03 20:12:55;;;;;;;;;;;7.30;1.00;;;;;;5058446;28;20278;-80
2022/02/03 20:15:23;;;;;;;;;;;7.30;1.00;;;;;;5059716;28;19998;-79
2022/02/03 20:17:48;;;;;;;;;;;7.30;1.00;;;;;;5057230;28;19912;-80
2022/02/03 20:20:14;;;;;;;;;;;7.30;1.00;;;;;;5056018;28;19991;-80
2022/02/03 20:22:40;;;;;;;;;;;7.30;1.00;;;;;;5091272;28;19913;-80
2022/02/03 20:25:06;;;;;;;;;;;7.30;1.00;;;;;;5057467;28;19917;-79
2022/02/03 20:27:32;;;;;;;;;;;7.30;1.00;;;;;;5058407;28;19956;-80
2022/02/03 20:29:58;;;;;;;;;;;7.30;1.00;;;;;;5056483;28;19921;-80
2022/02/03 20:32:24;;;;;;;;;;;7.30;1.00;;;;;;5060756;28;19913;-79
2022/02/03 20:34:50;;;;;;;;;;;7.30;1.00;;;;;;5061287;28;20015;-80
2022/02/03 20:37:15;;;;;;;;;;;7.30;1.00;;;;;;5062987;28;19948;-80
2022/02/03 20:39:43;;;;;;;;;;;7.30;1.00;;;;;;5060491;28;20427;-81
2022/02/03 20:42:11;;;;;;;;;;;7.30;1.00;;;;;;5062284;28;19948;-81
2022/02/03 20:44:36;;;;;;;;;;;7.30;1.00;;;;;;5064210;28;19913;-81
2022/02/03 20:47:02;;;;;;;;;;;7.30;1.00;;;;;;5063439;28;19924;-81
2022/02/03 20:49:28;;;;;;;;;;;7.30;1.00;;;;;;5096399;28;19909;-81
2022/02/03 20:51:55;;;;;;;;;;;7.30;1.00;;;;;;5067490;28;19919;-80
2022/02/03 20:54:20;;;;;;;;;;;7.30;1.00;;;;;;5070943;28;20030;-81
2022/02/03 20:56:47;;;;;;;;;;;7.30;1.00;;;;;;5074670;28;19916;-80
2022/02/03 20:59:13;;;;;;;;;;;7.30;1.00;;;;;;5056437;28;19921;-81
2022/02/03 21:01:40;;;;;;;;;;;7.30;1.00;;;;;;5058041;28;19924;-81
2022/02/03 21:04:11;;;;;;;;;;;7.30;1.00;;;;;;5060214;28;19912;-81
2022/02/03 21:06:37;;;;;;;;;;;7.30;1.00;;;;;;5059305;28;19951;-81
2022/02/03 21:09:05;;;;;;;;;;;7.30;1.00;;;;;;5057814;28;19956;-82
2022/02/03 21:11:31;;;;;;;;;;;7.30;1.00;;;;;;5059960;28;19924;-83
2022/02/03 21:13:57;;;;;;;;;;;7.30;1.00;;;;;;5055899;28;19913;-82
2022/02/03 21:16:23;;;;;;;;;;;7.30;1.00;;;;;;5063377;28;19965;-82
2022/02/03 21:18:49;;;;;;;;;;;7.30;1.00;;;;;;5060742;28;19921;-81
2022/02/03 21:21:14;;;;;;;;;;;7.30;1.00;;;;;;5056316;28;20341;-81
2022/02/03 21:23:40;;;;;;;;;;;7.30;1.00;;;;;;5053713;28;20062;-83
2022/02/03 21:26:13;;;;;;;;;;;7.20;1.00;;;;;;5058590;28;19917;-81
2022/02/03 21:28:38;;;;;;;;;;;7.20;1.00;;;;;;5062061;28;20012;-81
2022/02/03 21:31:05;;;;;;;;;;;7.20;1.00;;;;;;5061191;28;19912;-81
2022/02/03 21:33:34;;;;;;;;;;;7.20;1.00;;;;;;5066547;28;19913;-82
2022/02/03 21:36:07;;;;;;;;;;;7.20;1.00;;;;;;5058044;28;19916;-81
2022/02/03 21:38:34;;;;;;;;;;;7.20;1.00;;;;;;5062561;28;20343;-80
2022/02/03 21:40:59;;;;;;;;;;;7.20;1.00;;;;;;5054106;28;19917;-80
2022/02/03 21:43:25;;;;;;;;;;;7.20;1.00;;;;;;5056462;28;20331;-81
2022/02/03 21:45:50;;;;;;;;;;;7.10;1.00;;;;;;5058756;28;19913;-80
2022/02/03 21:48:16;;;;;;;;;;;7.10;1.00;;;;;;5056414;28;20389;-80
2022/02/03 21:50:42;;;;;;;;;;;7.10;1.00;;;;;;5055781;28;20011;-81
2022/02/03 21:53:25;;;;;;;;;;;7.10;1.00;;;;;;5064734;28;19916;-81
2022/02/03 21:55:52;;;;;;;;;;;7.10;1.00;;;;;;5066965;28;19912;-80
2022/02/03 21:58:18;;;;;;;;;;;7.10;1.00;;;;;;5057488;28;19913;-81
2022/02/03 22:00:44;;;;;;;;;;;7.10;1.00;;;;;;5085757;28;19975;-81
2022/02/03 22:03:09;;;;;;;;;;;7.10;1.00;;;;;;5057388;28;19913;-81
2022/02/03 22:05:36;;;;;;;;;;;7.10;1.00;;;;;;5049700;28;19913;-80
2022/02/03 22:08:02;;;;;;;;;;;7.10;1.00;;;;;;5055262;28;19917;-81
2022/02/03 22:10:28;;;;;;;;;;;7.10;1.00;;;;;;5054968;28;19917;-81
2022/02/03 22:12:54;;;;;;;;;;;7.10;1.00;;;;;;5051349;28;19924;-81
2022/02/03 22:15:19;;;;;;;;;;;7.10;1.00;;;;;;5055839;28;19912;-81
2022/02/03 22:17:46;;;;;;;;;;;7.10;1.00;;;;;;5058857;28;20296;-83
2022/02/03 22:20:31;;;;;;;;;;;7.10;1.00;;;;;;5083586;28;19951;-82
2022/02/03 22:39:15;;;;;;;;;;;7.20;1.00;;;;;;5064319;28;19919;-82
2022/02/03 22:44:53;;;;;;;;;;;7.30;1.00;;;;;;5056758;28;19919;-83
2022/02/03 22:47:21;;;;;;;;;;;7.30;1.00;;;;;;5056151;28;19987;-82
2022/02/03 22:49:47;;;;;;;;;;;7.30;1.00;;;;;;5056306;28;19928;-82
2022/02/03 22:52:13;;;;;;;;;;;7.30;1.00;;;;;;5053981;28;19975;-81
2022/02/03 22:54:39;;;;;;;;;;;7.30;1.00;;;;;;5088232;28;19982;-83
2022/02/03 22:57:05;;;;;;;;;;;7.30;1.00;;;;;;5085238;28;19913;-81
2022/02/03 23:02:05;;;;;;;;;;;7.30;1.00;;;;;;5059331;28;20399;-82
2022/02/03 23:04:31;;;;;;;;;;;7.30;1.00;;;;;;5055718;28;19921;-82
2022/02/03 23:07:06;;;;;;;;;;;7.30;1.00;;;;;;5054782;28;20062;-82
2022/02/03 23:09:46;;;;;;;;;;;7.30;1.00;;;;;;5059372;28;20369;-82
2022/02/03 23:12:16;;;;;;;;;;;7.30;1.00;;;;;;5057576;28;19924;-80
2022/02/03 23:20:11;;;;;;;;;;;7.30;1.00;;;;;;5049170;28;19924;-81
2022/02/03 23:22:37;;;;;;;;;;;7.30;1.00;;;;;;5055314;28;19920;-81
2022/02/03 23:25:04;;;;;;;;;;;7.30;1.00;;;;;;5060998;28;19913;-81
2022/02/03 23:29:58;;;;;;;;;;;7.30;1.00;;;;;;5067505;28;19976;-82
2022/02/03 23:32:24;;;;;;;;;;;7.30;1.00;;;;;;5056378;28;19948;-83
2022/02/03 23:35:25;;;;;;;;;;;7.30;1.00;;;;;;5058863;28;19912;-83
2022/02/03 23:37:45;;;;;;;;;;;7.30;1.00;;;;;;5054500;28;19919;-82
2022/02/03 23:40:17;;;;;;;;;;;7.30;1.00;;;;;;5050048;28;19920;-82
